Rhenen, Netherlands
Current Conditions -  °F | °C
As of 7:55 PM on Tuesday 27 Jan 2015 (Local Time) from EHDL Reporting Station
Scattered Clouds Scattered Clouds  
Wind Chill: 34°   Ceiling: Unl
Heat Index: 37°   Visibility: 6mi
Dew Point: 36°   Wind: 5mph
Humidity: 93%   Direction: 240°WSW
Pressure: 30.18"   Gusts: NA
Location:  51.96°N, 5.57°E
Report Text: EHDL 271855Z AUTO 24004KT 9999 FEW012 SCT024 03/02 Q1022 WHT
Loading
Personal Weather Stations






























Interactive Weather Map New forecast layout! Learn more

10-Day Weather Forecast

Advertisements
Track Severe Weather on mobile